Time;durP1;ratioP1;P1;durP2;ratioP2;P2;SDS_P1;SDS_P2;PMS_P1;PMS_P2;Temp;Humidity;BMP_temperature;BMP_pressure;BME280_temperature;BME280_humidity;BME280_pressure;Samples;Min_cycle;Max_cycle;Signal;HPM_P1;HPM_P2
2023/09/07 00:00:14;;;;;;;1247.90;506.10;;;18.40;99.90;;;;;;4918588;29;20050;-86
2023/09/07 00:02:40;;;;;;;1341.17;545.90;;;18.30;99.90;;;;;;4918716;29;20055;-86
2023/09/07 00:05:07;;;;;;;1240.97;513.03;;;18.20;99.90;;;;;;4918488;29;20044;-86
2023/09/07 00:07:33;;;;;;;1344.17;556.30;;;18.20;99.90;;;;;;4918095;29;20091;-86
2023/09/07 00:09:59;;;;;;;1196.87;508.00;;;18.10;99.90;;;;;;4919758;29;20051;-87
2023/09/07 00:12:26;;;;;;;1195.87;504.67;;;18.10;99.90;;;;;;4918514;29;20115;-86
2023/09/07 00:14:55;;;;;;;1345.27;548.83;;;18.10;99.90;;;;;;4919606;29;20423;-86
2023/09/07 00:17:21;;;;;;;1342.30;544.30;;;18.00;99.90;;;;;;4919503;29;20071;-86
2023/09/07 00:19:49;;;;;;;1281.97;557.53;;;18.00;99.90;;;;;;4919645;29;20044;-85
2023/09/07 00:22:16;;;;;;;1184.73;499.53;;;17.90;99.90;;;;;;4919190;29;20123;-85
2023/09/07 00:24:42;;;;;;;1292.97;549.60;;;17.90;99.90;;;;;;4918430;29;20063;-86
2023/09/07 00:27:07;;;;;;;1232.07;554.43;;;17.80;99.90;;;;;;4920968;29;20502;-87
2023/09/07 00:29:35;;;;;;;1151.77;498.90;;;17.70;99.90;;;;;;4905580;29;20083;-86
2023/09/07 00:32:01;;;;;;;1282.87;547.90;;;17.80;99.90;;;;;;4919909;29;20158;-86
2023/09/07 00:34:27;;;;;;;1091.60;477.17;;;17.80;99.90;;;;;;4905175;29;20135;-87
2023/09/07 00:36:53;;;;;;;1182.97;540.03;;;17.70;99.90;;;;;;4921298;29;20075;-87
2023/09/07 00:39:19;;;;;;;1151.10;542.07;;;17.70;99.90;;;;;;4921111;29;20047;-86
2023/09/07 00:41:44;;;;;;;1191.73;548.83;;;17.70;99.90;;;;;;4938584;29;20134;-86
2023/09/07 00:44:10;;;;;;;1077.63;549.80;;;17.70;99.90;;;;;;4938366;29;20046;-86
2023/09/07 00:46:36;;;;;;;1017.20;476.70;;;17.70;99.90;;;;;;4938375;29;20094;-86
2023/09/07 00:49:04;;;;;;;1094.80;547.70;;;17.60;99.90;;;;;;4921727;29;20056;-86
2023/09/07 00:51:30;;;;;;;1012.67;493.70;;;17.60;99.90;;;;;;4921926;29;20083;-86
2023/09/07 00:53:56;;;;;;;971.13;482.93;;;17.60;99.90;;;;;;4938683;29;20498;-86
2023/09/07 00:56:24;;;;;;;1230.73;529.90;;;17.60;99.90;;;;;;4912530;29;20048;-85
2023/09/07 00:58:51;;;;;;;1239.33;538.77;;;17.50;99.90;;;;;;4928821;29;20479;-85
2023/09/07 01:01:17;;;;;;;1238.60;533.30;;;17.50;99.90;;;;;;4927546;29;20091;-86
2023/09/07 01:03:42;;;;;;;1176.33;487.53;;;17.40;99.90;;;;;;4930036;29;20050;-86
2023/09/07 01:06:19;;;;;;;1190.00;490.07;;;17.50;99.90;;;;;;4948565;29;20083;-86
2023/09/07 01:08:49;;;;;;;1267.13;526.07;;;17.40;99.90;;;;;;4948393;29;20055;-86
2023/09/07 01:11:22;;;;;;;1092.73;505.77;;;17.50;99.90;;;;;;4946611;29;20052;-86
2023/09/07 01:13:48;;;;;;;1034.50;512.27;;;17.40;99.90;;;;;;4930564;29;20516;-86
2023/09/07 01:16:14;;;;;;;1076.60;578.33;;;17.40;99.90;;;;;;4916719;29;20407;-86
2023/09/07 01:18:41;;;;;;;1105.07;481.50;;;17.30;99.90;;;;;;4915440;29;20036;-86
2023/09/07 01:21:08;;;;;;;1111.00;475.53;;;17.30;99.90;;;;;;4930533;29;20083;-86
2023/09/07 01:23:39;;;;;;;1138.03;540.93;;;17.30;99.90;;;;;;4929452;29;20040;-85
2023/09/07 01:26:08;;;;;;;1133.67;539.27;;;17.20;99.90;;;;;;4929929;29;20414;-86
2023/09/07 01:28:37;;;;;;;1158.37;538.77;;;17.20;99.90;;;;;;4927273;29;20047;-85
2023/09/07 01:31:06;;;;;;;1151.27;535.67;;;17.20;99.90;;;;;;4928814;29;20382;-86
2023/09/07 01:33:32;;;;;;;1112.87;479.10;;;17.20;99.90;;;;;;4911325;29;20058;-86
2023/09/07 01:36:01;;;;;;;1106.00;476.30;;;17.20;99.90;;;;;;4917132;29;20067;-87
2023/09/07 01:38:26;;;;;;;1145.97;536.00;;;17.10;99.90;;;;;;4934900;29;20051;-86
2023/09/07 01:40:52;;;;;;;1092.93;535.63;;;17.20;99.90;;;;;;4950518;29;20043;-86
2023/09/07 01:43:19;;;;;;;1070.60;468.63;;;17.10;99.90;;;;;;4931010;29;20099;-86
2023/09/07 01:45:47;;;;;;;1138.83;541.60;;;17.20;99.90;;;;;;4931922;29;20066;-86
2023/09/07 01:48:15;;;;;;;1057.57;541.00;;;17.20;99.90;;;;;;4931345;29;20044;-86
2023/09/07 01:50:40;;;;;;;996.37;537.00;;;17.20;99.90;;;;;;4931714;29;20438;-86
2023/09/07 01:53:06;;;;;;;1060.63;501.50;;;17.20;99.90;;;;;;4916120;29;20111;-85
2023/09/07 01:55:32;;;;;;;1031.37;535.67;;;17.20;99.90;;;;;;4950324;29;20043;-86
2023/09/07 01:57:58;;;;;;;1053.93;475.57;;;17.10;99.90;;;;;;4919164;29;20052;-86
2023/09/07 02:00:24;;;;;;;1164.00;536.30;;;17.10;99.90;;;;;;4951749;29;20138;-86
2023/09/07 02:02:50;;;;;;;1161.77;537.47;;;17.10;99.90;;;;;;4950636;29;20103;-86
2023/09/07 02:05:19;;;;;;;1098.67;477.13;;;17.10;99.90;;;;;;4930872;29;20046;-86
2023/09/07 02:07:49;;;;;;;1071.63;490.93;;;17.00;99.90;;;;;;4947384;29;20069;-86
2023/09/07 02:10:15;;;;;;;926.43;557.77;;;17.00;99.90;;;;;;4916209;29;20394;-86
2023/09/07 02:12:41;;;;;;;930.20;531.10;;;17.00;99.90;;;;;;4950925;29;20075;-85
2023/09/07 02:15:07;;;;;;;1054.23;561.27;;;17.00;99.90;;;;;;4934863;29;20079;-86
2023/09/07 02:17:32;;;;;;;1078.67;534.40;;;17.00;99.90;;;;;;4934291;29;20080;-85
2023/09/07 02:19:58;;;;;;;1212.57;537.47;;;17.00;99.90;;;;;;4932069;29;20051;-86
2023/09/07 02:22:24;;;;;;;1078.23;533.83;;;16.90;99.90;;;;;;4915924;29;20052;-86
2023/09/07 02:24:50;;;;;;;1026.97;465.57;;;17.10;99.90;;;;;;4932615;29;20124;-86
2023/09/07 02:27:16;;;;;;;1064.40;541.50;;;16.90;99.90;;;;;;4934835;29;20138;-86
2023/09/07 02:29:41;;;;;;;1046.83;471.80;;;16.90;99.90;;;;;;4933053;29;20462;-86
2023/09/07 02:32:10;;;;;;;1032.87;469.70;;;16.90;99.90;;;;;;4932819;29;20040;-86
2023/09/07 02:34:36;;;;;;;990.20;463.97;;;16.90;99.90;;;;;;4931459;29;20059;-86
2023/09/07 02:37:02;;;;;;;1017.00;532.17;;;16.90;99.90;;;;;;4931303;29;20051;-86
2023/09/07 02:39:28;;;;;;;988.40;464.23;;;16.90;99.90;;;;;;4947131;29;20058;-85
2023/09/07 02:41:54;;;;;;;996.87;532.43;;;16.90;99.90;;;;;;4946939;29;20542;-86
2023/09/07 02:44:22;;;;;;;1095.77;533.37;;;16.80;99.90;;;;;;4930502;29;20108;-86
2023/09/07 02:46:48;;;;;;;981.80;532.73;;;16.80;99.90;;;;;;4930290;29;20054;-86
2023/09/07 02:49:14;;;;;;;963.57;527.10;;;16.80;99.90;;;;;;4929292;29;20079;-87
2023/09/07 02:51:40;;;;;;;983.60;472.10;;;16.70;99.90;;;;;;4913769;29;20048;-86
2023/09/07 02:54:07;;;;;;;979.00;530.73;;;16.70;99.90;;;;;;4930316;29;20047;-86
2023/09/07 02:56:33;;;;;;;974.43;468.00;;;16.70;99.90;;;;;;4931675;29;20475;-87
2023/09/07 02:58:59;;;;;;;1166.07;482.67;;;16.70;99.90;;;;;;4930962;29;20071;-86
2023/09/07 03:01:25;;;;;;;1022.40;475.70;;;16.70;99.90;;;;;;4929323;29;20048;-86
2023/09/07 03:03:51;;;;;;;1125.93;530.33;;;16.60;99.90;;;;;;4930404;29;20040;-87
2023/09/07 03:06:17;;;;;;;1039.23;529.70;;;16.60;99.90;;;;;;4945862;29;20067;-86
2023/09/07 03:08:43;;;;;;;1025.17;534.47;;;16.60;99.90;;;;;;4930414;29;20052;-86
2023/09/07 03:11:09;;;;;;;999.50;467.93;;;16.60;99.90;;;;;;4947460;29;20134;-86
2023/09/07 03:13:35;;;;;;;979.73;465.10;;;16.50;99.90;;;;;;4915556;29;20063;-86
2023/09/07 03:16:03;;;;;;;1024.47;529.43;;;16.50;99.90;;;;;;4950112;29;20102;-86
2023/09/07 03:18:29;;;;;;;1003.60;528.87;;;16.50;99.90;;;;;;4916641;29;20138;-86
2023/09/07 03:20:57;;;;;;;999.37;526.30;;;16.50;99.90;;;;;;4928462;29;20040;-86
2023/09/07 03:23:23;;;;;;;984.67;525.50;;;16.40;99.90;;;;;;4909464;29;20175;-86
2023/09/07 03:25:49;;;;;;;946.53;466.33;;;16.30;99.90;;;;;;4926024;29;20144;-86
2023/09/07 03:28:15;;;;;;;945.70;478.30;;;16.40;99.90;;;;;;4939969;29;20083;-86
2023/09/07 03:30:41;;;;;;;890.10;443.73;;;16.30;99.90;;;;;;4926655;29;20330;-87
2023/09/07 03:33:07;;;;;;;890.70;448.73;;;16.30;99.90;;;;;;4911045;29;20051;-86
2023/09/07 03:35:33;;;;;;;877.43;499.87;;;16.30;99.90;;;;;;4925846;29;20058;-86
2023/09/07 03:37:59;;;;;;;882.63;507.97;;;16.30;99.90;;;;;;4941790;29;20043;-87
2023/09/07 03:40:25;;;;;;;890.83;446.13;;;16.20;99.90;;;;;;4929920;29;20066;-86
2023/09/07 03:42:50;;;;;;;876.80;439.53;;;16.20;99.90;;;;;;4929848;29;20044;-86
2023/09/07 03:45:17;;;;;;;876.13;442.47;;;16.20;99.90;;;;;;4927019;29;20136;-86
2023/09/07 03:47:44;;;;;;;878.43;438.10;;;16.20;99.90;;;;;;4925272;29;20067;-86
2023/09/07 03:57:22;;;;;;;890.37;504.97;;;16.20;99.90;;;;;;4911759;29;20059;-86
2023/09/07 03:59:48;;;;;;;919.10;455.30;;;16.10;99.90;;;;;;4915238;29;20120;-86
2023/09/07 04:02:14;;;;;;;927.33;456.60;;;16.10;99.90;;;;;;4929995;29;20123;-86
2023/09/07 04:05:35;;;;;;;922.97;516.70;;;16.10;99.90;;;;;;4916120;29;20040;-86
2023/09/07 04:08:02;;;;;;;927.23;514.90;;;16.10;99.90;;;;;;4943740;29;20553;-86
2023/09/07 04:10:28;;;;;;;948.90;458.13;;;16.10;99.90;;;;;;4947144;29;20031;-85
2023/09/07 04:12:54;;;;;;;986.07;523.10;;;16.10;99.90;;;;;;4928747;29;20058;-86
2023/09/07 04:15:20;;;;;;;1010.97;525.20;;;16.10;99.90;;;;;;4912808;29;20041;-86
2023/09/07 04:17:46;;;;;;;995.67;454.77;;;16.20;99.90;;;;;;4927779;29;20083;-86
2023/09/07 04:20:11;;;;;;;1094.43;526.87;;;16.00;99.90;;;;;;4913295;29;20086;-86
2023/09/07 04:22:40;;;;;;;975.97;527.47;;;16.10;99.90;;;;;;4928567;29;20047;-88
2023/09/07 04:25:06;;;;;;;1010.13;550.97;;;16.00;99.90;;;;;;4928621;29;20047;-86
2023/09/07 04:27:32;;;;;;;992.23;530.70;;;16.00;99.90;;;;;;4931164;29;20056;-86
2023/09/07 04:29:58;;;;;;;1018.43;533.60;;;16.00;99.90;;;;;;4915809;29;20114;-86
2023/09/07 04:32:23;;;;;;;1012.20;534.13;;;16.00;99.90;;;;;;4929467;29;20467;-85
2023/09/07 04:34:56;;;;;;;1007.50;469.33;;;16.00;99.90;;;;;;4928566;29;20107;-86
2023/09/07 04:37:23;;;;;;;1003.17;470.60;;;15.90;99.90;;;;;;4930380;29;20040;-86
2023/09/07 04:39:53;;;;;;;1034.03;536.20;;;15.90;99.90;;;;;;4936184;29;20504;-86
2023/09/07 04:42:21;;;;;;;999.40;467.80;;;15.90;99.90;;;;;;4936172;29;20292;-86
2023/09/07 04:44:48;;;;;;;1006.53;475.90;;;15.90;99.90;;;;;;4950953;29;20291;-86
2023/09/07 04:47:15;;;;;;;993.43;537.40;;;15.80;99.90;;;;;;4933405;29;20048;-86
2023/09/07 04:49:41;;;;;;;1039.87;545.67;;;15.80;99.90;;;;;;4948983;29;20051;-85
2023/09/07 04:52:07;;;;;;;962.83;545.30;;;15.80;99.90;;;;;;4916296;29;20047;-86
2023/09/07 04:54:32;;;;;;;937.43;523.10;;;15.80;99.90;;;;;;4945193;29;20123;-86
2023/09/07 04:56:58;;;;;;;935.37;463.40;;;15.20;99.90;;;;;;4928041;29;20047;-86
2023/09/07 04:59:24;;;;;;;947.17;539.03;;;15.70;99.90;;;;;;4947463;29;20083;-85
2023/09/07 05:01:52;;;;;;;922.40;519.57;;;15.70;99.90;;;;;;4915955;29;20135;-86
2023/09/07 05:04:18;;;;;;;966.40;457.60;;;15.70;99.90;;;;;;4948689;29;20086;-86
2023/09/07 05:06:44;;;;;;;974.43;460.87;;;15.70;99.90;;;;;;4949417;29;20047;-86
2023/09/07 05:09:10;;;;;;;969.67;456.50;;;15.70;99.90;;;;;;4932450;29;20047;-86
2023/09/07 05:11:35;;;;;;;964.30;537.77;;;15.80;99.90;;;;;;4929902;29;20490;-86
2023/09/07 05:14:02;;;;;;;978.07;522.97;;;15.70;99.90;;;;;;4946799;29;20160;-86
2023/09/07 05:16:28;;;;;;;958.97;453.20;;;15.70;99.90;;;;;;4913537;29;20051;-86
2023/09/07 05:23:19;;;;;;;1070.83;448.30;;;15.70;99.90;;;;;;4943426;29;20050;-86
2023/09/07 05:25:51;;;;;;;1147.77;527.80;;;15.60;99.90;;;;;;4942587;29;20099;-86
2023/09/07 05:28:18;;;;;;;1082.30;451.47;;;15.60;99.90;;;;;;4925516;29;20299;-86
2023/09/07 05:30:43;;;;;;;1095.33;447.20;;;15.60;99.90;;;;;;4910775;29;20054;-86
2023/09/07 05:33:11;;;;;;;1090.17;445.60;;;15.50;99.90;;;;;;4927788;29;20047;-86
2023/09/07 05:35:37;;;;;;;1138.70;535.23;;;15.50;99.90;;;;;;4911815;29;20082;-86
2023/09/07 05:38:04;;;;;;;1063.77;462.77;;;15.50;99.90;;;;;;4927107;29;20047;-86
2023/09/07 05:40:36;;;;;;;1078.83;531.20;;;15.50;99.90;;;;;;4927604;29;20059;-86
2023/09/07 05:43:03;;;;;;;1078.63;530.60;;;15.70;99.90;;;;;;4928455;29;20063;-86
2023/09/07 05:45:31;;;;;;;1037.13;534.87;;;15.70;99.90;;;;;;4928052;29;20075;-86
2023/09/07 05:47:57;;;;;;;1023.17;455.17;;;15.60;99.90;;;;;;4928412;29;20296;-86
2023/09/07 05:57:46;;;;;;;962.47;458.00;;;15.80;99.90;;;;;;4927144;29;20072;-86
2023/09/07 06:00:12;;;;;;;955.07;449.77;;;15.90;99.90;;;;;;4908958;29;20087;-86
2023/09/07 06:02:39;;;;;;;927.37;518.70;;;16.00;99.90;;;;;;4909854;29;20056;-86
2023/09/07 06:05:05;;;;;;;913.33;513.87;;;16.00;99.90;;;;;;4914005;29;20051;-86
2023/09/07 06:07:31;;;;;;;853.43;504.20;;;16.10;99.90;;;;;;4930683;29;20070;-86
2023/09/07 06:09:58;;;;;;;892.60;449.93;;;16.20;99.90;;;;;;4931078;29;20044;-85
2023/09/07 06:12:25;;;;;;;858.03;428.33;;;16.30;99.90;;;;;;4929848;29;20048;-88
2023/09/07 06:14:50;;;;;;;869.53;441.37;;;16.40;99.90;;;;;;4907589;29;20088;-86
2023/09/07 06:17:19;;;;;;;842.93;499.23;;;16.50;99.90;;;;;;4891107;29;20044;-85
2023/09/07 06:19:45;;;;;;;863.57;422.63;;;16.70;99.90;;;;;;4911710;29;20072;-86
2023/09/07 06:22:11;;;;;;;871.13;442.73;;;16.90;99.90;;;;;;4923846;29;20047;-86
2023/09/07 06:24:40;;;;;;;863.37;437.70;;;17.00;99.90;;;;;;4923997;29;20107;-88
2023/09/07 06:27:06;;;;;;;861.03;435.73;;;17.20;99.90;;;;;;4940960;29;20055;-88
2023/09/07 06:29:31;;;;;;;851.93;500.83;;;17.40;99.90;;;;;;4909108;29;20083;-88
2023/09/07 06:31:58;;;;;;;848.70;506.90;;;17.50;99.90;;;;;;4924515;29;20121;-87
2023/09/07 06:38:36;;;;;;;873.77;432.87;;;17.90;99.90;;;;;;4944133;29;20099;-86
2023/09/07 06:41:02;;;;;;;893.03;448.70;;;18.10;99.90;;;;;;4943162;29;20119;-88
2023/09/07 06:43:33;;;;;;;869.10;514.50;;;18.30;99.90;;;;;;4938589;29;20051;-93
2023/09/07 06:46:07;;;;;;;878.67;521.83;;;18.40;99.90;;;;;;4921748;29;20426;-88
2023/09/07 06:48:33;;;;;;;884.00;522.07;;;18.60;99.90;;;;;;4921417;29;20394;-86
2023/09/07 06:51:03;;;;;;;913.83;474.40;;;18.70;99.90;;;;;;4907082;29;20099;-86
2023/09/07 06:53:30;;;;;;;935.00;486.63;;;18.90;99.90;;;;;;4921743;29;20568;-87
2023/09/07 06:56:02;;;;;;;843.97;479.60;;;19.00;99.90;;;;;;4940147;29;20111;-88
2023/09/07 06:58:28;;;;;;;890.83;458.70;;;19.10;99.90;;;;;;4906792;29;20043;-88
2023/09/07 07:01:04;;;;;;;1260.10;482.63;;;19.30;99.90;;;;;;4907474;29;20443;-91
2023/09/07 07:03:30;;;;;;;1188.77;499.70;;;19.40;99.90;;;;;;4903149;29;20139;-89
2023/09/07 07:09:38;;;;;;;1140.67;498.67;;;19.70;99.90;;;;;;4918838;29;20051;-87
2023/09/07 07:12:06;;;;;;;1136.03;489.20;;;19.90;99.90;;;;;;4903103;29;20048;-88
2023/09/07 07:14:35;;;;;;;1121.40;491.00;;;20.00;99.90;;;;;;4886771;29;20052;-87
2023/09/07 07:17:04;;;;;;;1189.60;553.33;;;20.20;99.90;;;;;;4915168;29;20055;-88
2023/09/07 07:19:48;;;;;;;1088.73;490.93;;;20.30;99.90;;;;;;4921779;29;20440;-89
2023/09/07 07:22:14;;;;;;;1052.50;501.30;;;20.40;99.90;;;;;;4922002;29;20490;-84
2023/09/07 07:24:40;;;;;;;1045.33;556.43;;;20.60;99.90;;;;;;4921117;29;20063;-84
2023/09/07 07:27:06;;;;;;;1007.80;557.10;;;20.80;99.90;;;;;;4937500;29;20454;-85
2023/09/07 07:29:31;;;;;;;990.10;552.83;;;20.90;99.90;;;;;;4922408;29;20055;-85
2023/09/07 07:31:57;;;;;;;939.87;557.03;;;21.00;99.90;;;;;;4906901;29;20035;-85
2023/09/07 07:34:23;;;;;;;986.63;566.23;;;21.10;99.90;;;;;;4922341;29;20075;-85
2023/09/07 07:36:49;;;;;;;1013.90;561.77;;;21.20;99.90;;;;;;4941395;29;20458;-85
2023/09/07 07:39:15;;;;;;;1002.77;530.63;;;21.30;99.90;;;;;;4907334;29;20044;-85
2023/09/07 07:41:41;;;;;;;1009.03;518.70;;;21.40;99.90;;;;;;4939666;29;20051;-85
2023/09/07 07:44:07;;;;;;;963.17;515.40;;;21.50;99.90;;;;;;4908438;29;20503;-85
2023/09/07 07:46:32;;;;;;;955.03;527.53;;;21.60;99.90;;;;;;4909546;29;20060;-85
2023/09/07 07:48:58;;;;;;;911.43;496.83;;;21.70;99.90;;;;;;4909420;29;20063;-85
2023/09/07 07:51:24;;;;;;;907.23;547.93;;;21.80;99.90;;;;;;4942831;29;20515;-85
2023/09/07 07:53:50;;;;;;;930.97;508.80;;;22.00;99.90;;;;;;4926527;29;20050;-85
2023/09/07 07:56:17;;;;;;;861.97;535.77;;;22.10;99.90;;;;;;4944773;29;20186;-85
2023/09/07 07:58:43;;;;;;;82.20;77.13;;;22.20;99.90;;;;;;4927662;29;20054;-85
2023/09/07 08:01:20;;;;;;;638.15;575.75;;;22.30;99.90;;;;;;4942957;29;20406;-85
2023/09/07 08:03:46;;;;;;;37.85;34.65;;;22.50;99.90;;;;;;4925702;29;20563;-84
2023/09/07 08:06:12;;;;;;;1046.07;630.20;;;22.60;99.90;;;;;;4926511;29;20058;-85
2023/09/07 08:08:39;;;;;;;1118.95;633.70;;;22.70;99.90;;;;;;4926385;29;20052;-85
2023/09/07 08:11:05;;;;;;;1190.53;729.35;;;22.80;99.90;;;;;;4940533;29;20051;-85
2023/09/07 08:13:35;;;;;;;1012.55;714.67;;;23.00;99.90;;;;;;4923228;29;20525;-85
2023/09/07 08:16:06;;;;;;;1005.00;599.70;;;23.10;99.90;;;;;;4940570;29;20106;-85
2023/09/07 08:18:33;;;;;;;1107.32;627.10;;;23.20;99.90;;;;;;4923398;29;20447;-85
2023/09/07 08:21:00;;;;;;;1162.45;771.53;;;23.30;99.90;;;;;;4940559;29;20035;-85
2023/09/07 08:23:26;;;;;;;1139.03;635.13;;;23.40;99.90;;;;;;4939634;29;20052;-85
2023/09/07 08:25:52;;;;;;;1015.42;773.88;;;23.50;99.90;;;;;;4907199;29;20044;-85
2023/09/07 08:28:18;;;;;;;1115.30;789.95;;;23.60;99.90;;;;;;4919698;29;20056;-85
2023/09/07 08:30:45;;;;;;;1275.68;789.03;;;23.70;99.90;;;;;;4921093;29;20090;-85
2023/09/07 08:33:11;;;;;;;856.67;596.40;;;23.80;99.90;;;;;;4920819;29;20052;-84
2023/09/07 08:35:43;;;;;;;1151.30;823.47;;;23.90;99.90;;;;;;4920975;29;20103;-84
2023/09/07 08:38:13;;;;;;;1122.20;829.15;;;24.10;99.90;;;;;;4920028;29;20133;-85
2023/09/07 08:40:42;;;;;;;1104.97;848.70;;;24.20;99.90;;;;;;4921585;29;20083;-84
2023/09/07 08:43:11;;;;;;;912.72;823.08;;;24.40;99.90;;;;;;4921692;29;20048;-84
2023/09/07 08:45:47;;;;;;;654.53;585.67;;;24.50;99.90;;;;;;4921914;29;20044;-85
2023/09/07 08:48:17;;;;;;;871.63;631.22;;;24.60;99.90;;;;;;4921882;29;20083;-86
2023/09/07 08:50:49;;;;;;;900.50;823.42;;;24.90;99.90;;;;;;4936950;29;20040;-85
2023/09/07 08:53:18;;;;;;;598.90;541.30;;;25.00;99.90;;;;;;4904949;29;20056;-84
2023/09/07 08:55:44;;;;;;;722.85;671.03;;;25.10;99.90;;;;;;4921598;29;20131;-84
2023/09/07 08:58:10;;;;;;;207.25;194.15;;;25.20;99.90;;;;;;4920399;29;20083;-85
2023/09/07 09:00:37;;;;;;;506.63;467.33;;;25.50;99.90;;;;;;4922231;29;20075;-85
2023/09/07 09:03:04;;;;;;;249.50;233.88;;;25.60;99.90;;;;;;4920445;29;20084;-85
2023/09/07 09:05:30;;;;;;;61.47;56.95;;;25.60;99.90;;;;;;4903427;29;20044;-85
2023/09/07 09:08:05;;;;;;;176.13;164.63;;;25.80;99.90;;;;;;4920383;29;20052;-85
2023/09/07 09:10:31;;;;;;;180.18;164.98;;;25.90;99.90;;;;;;4921173;29;20048;-85
2023/09/07 09:12:59;;;;;;;607.20;558.42;;;25.90;99.90;;;;;;4921815;29;20044;-85
2023/09/07 09:15:29;;;;;;;55.88;52.05;;;26.10;99.90;;;;;;4920654;29;20131;-86
2023/09/07 09:17:54;;;;;;;273.95;252.35;;;26.20;99.90;;;;;;4921104;29;20047;-85
2023/09/07 09:20:26;;;;;;;28.08;26.02;;;26.40;99.90;;;;;;4903200;29;20044;-86
2023/09/07 09:22:54;;;;;;;9.75;9.07;;;26.50;99.90;;;;;;4919171;29;20075;-86
2023/09/07 09:25:20;;;;;;;12.70;11.73;;;26.60;99.90;;;;;;4920790;29;20119;-85
2023/09/07 09:27:47;;;;;;;176.30;161.35;;;26.60;99.90;;;;;;4922716;29;20062;-86
2023/09/07 09:30:15;;;;;;;62.95;57.88;;;26.60;99.90;;;;;;4922392;29;20228;-86
2023/09/07 09:32:42;;;;;;;100.55;94.40;;;26.80;99.90;;;;;;4921959;29;20051;-86
2023/09/07 09:35:09;;;;;;;15.00;13.73;;;26.90;99.90;;;;;;4939211;29;20050;-86
2023/09/07 09:37:46;;;;;;;423.08;390.40;;;26.90;99.90;;;;;;4938645;29;20086;-86
2023/09/07 09:40:13;;;;;;;153.93;145.07;;;27.10;99.90;;;;;;4939648;29;20070;-85
2023/09/07 09:42:43;;;;;;;193.07;180.70;;;27.20;99.90;;;;;;4922009;29;20078;-86
2023/09/07 09:45:10;;;;;;;54.90;51.30;;;27.30;99.90;;;;;;4923261;29;20071;-85
2023/09/07 09:47:42;;;;;;;393.52;364.73;;;27.30;99.90;;;;;;4939324;29;20048;-86
2023/09/07 09:50:10;;;;;;;295.65;271.38;;;27.40;99.90;;;;;;4940353;29;20086;-86
2023/09/07 09:52:37;;;;;;;623.92;576.50;;;27.40;99.90;;;;;;4905898;29;20059;-86
2023/09/07 09:55:08;;;;;;;870.28;806.85;;;27.40;99.90;;;;;;4920876;29;20051;-85
2023/09/07 09:57:36;;;;;;;419.25;392.65;;;27.40;99.90;;;;;;4905106;29;20035;-86
2023/09/07 10:00:19;;;;;;;564.17;523.88;;;27.40;99.90;;;;;;4937998;29;20560;-85
2023/09/07 10:03:06;;;;;;;115.30;106.95;;;27.60;99.90;;;;;;4920122;29;20127;-86
2023/09/07 10:05:34;;;;;;;522.90;487.15;;;27.50;99.90;;;;;;4904315;29;20059;-86
2023/09/07 10:08:11;;;;;;;340.13;316.20;;;27.60;99.90;;;;;;4919796;29;20447;-86
2023/09/07 10:10:38;;;;;;;340.05;317.85;;;27.60;99.90;;;;;;4936446;29;20398;-86
2023/09/07 10:13:05;;;;;;;490.67;451.27;;;27.70;99.90;;;;;;4918579;29;20119;-87
2023/09/07 10:27:10;;;;;;;635.47;591.58;;;28.30;99.90;;;;;;5190510;23;20054;-92
2023/09/07 10:30:23;;;;;;;274.48;256.15;;;28.40;99.90;;;;;;4830434;29;20058;-92
2023/09/07 11:56:21;;;;;;;1106.78;736.88;;;30.30;93.60;;;;;;4957630;28;20539;-93
2023/09/07 12:00:23;;;;;;;1103.78;745.08;;;30.40;94.50;;;;;;4822370;29;20061;-94
2023/09/07 12:03:52;;;;;;;1341.70;999.25;;;30.40;94.00;;;;;;4754153;29;20184;-96
2023/09/07 12:11:05;;;;;;;1215.90;755.92;;;30.40;93.30;;;;;;4618432;31;20130;-93
2023/09/07 12:17:24;;;;;;;1208.00;999.90;;;30.70;93.20;;;;;;4619926;30;20059;-93
2023/09/07 12:20:43;;;;;;;1008.60;753.08;;;30.90;93.80;;;;;;4619161;31;20064;-94
2023/09/07 12:23:49;;;;;;;1207.38;999.90;;;30.80;92.60;;;;;;4603119;31;20107;-94
2023/09/07 12:31:23;;;;;;;;;;;;;;;;;;;;;
2023/09/07 12:45:38;;;;;;;1164.72;996.10;;;30.70;92.70;;;;;;5249260;22;24132210;-92
2023/09/07 12:48:43;;;;;;;;;;;;;;;;;;;;;
2023/09/07 13:06:43;;;;;;;1114.75;998.75;;;31.50;91.90;;;;;;6231438;23;20024;-90
2023/09/07 13:09:14;;;;;;;813.10;727.70;;;31.40;91.00;;;;;;6232929;23;20020;-94
2023/09/07 13:11:48;;;;;;;827.30;734.95;;;31.30;91.50;;;;;;6229154;22;20115;-92
2023/09/07 13:15:00;;;;;;;1125.07;999.90;;;31.20;92.00;;;;;;6228088;23;20051;-93
2023/09/07 13:17:37;;;;;;;819.35;732.53;;;31.30;92.30;;;;;;6107373;23;20018;-91
2023/09/07 13:22:40;;;;;;;1118.32;999.90;;;31.30;90.30;;;;;;6225756;22;20023;-92
2023/09/07 13:25:32;;;;;;;;;;;;;;;;;;;;;
2023/09/07 13:28:11;;;;;;;814.75;731.42;;;31.30;92.00;;;;;;6253130;22;20028;-91
2023/09/07 13:30:39;;;;;;;819.50;737.10;;;31.40;91.60;;;;;;6255655;23;20007;-86
2023/09/07 13:33:08;;;;;;;812.92;728.72;;;31.50;92.40;;;;;;6225053;23;20401;-86
2023/09/07 13:35:33;;;;;;;1119.75;999.90;;;31.60;93.00;;;;;;6250910;23;20012;-86
2023/09/07 13:37:59;;;;;;;1125.82;999.90;;;31.70;91.30;;;;;;6225266;23;20489;-86
2023/09/07 13:40:29;;;;;;;1127.07;999.90;;;31.70;91.00;;;;;;6225808;23;20016;-86
2023/09/07 13:42:56;;;;;;;833.03;752.08;;;31.70;91.20;;;;;;6225838;23;20331;-86
2023/09/07 13:45:22;;;;;;;859.00;753.90;;;31.70;91.40;;;;;;6218890;23;20017;-86
2023/09/07 13:47:48;;;;;;;749.33;692.38;;;31.70;91.90;;;;;;6244252;23;20020;-88
2023/09/07 13:50:14;;;;;;;840.63;753.50;;;31.60;91.00;;;;;;6218714;23;20019;-89
2023/09/07 13:52:40;;;;;;;806.30;729.92;;;31.50;90.80;;;;;;6218556;23;20099;-86
2023/09/07 13:55:06;;;;;;;782.13;715.20;;;31.50;91.10;;;;;;6219101;23;20070;-87
2023/09/07 13:57:35;;;;;;;1067.30;977.03;;;31.50;91.90;;;;;;6245125;23;20027;-86
2023/09/07 14:00:05;;;;;;;1088.35;992.95;;;31.50;90.90;;;;;;6244776;23;20024;-89
2023/09/07 14:02:32;;;;;;;1080.55;986.72;;;31.50;90.90;;;;;;6246901;22;20008;-86
2023/09/07 14:08:24;;;;;;;801.95;728.30;;;31.40;90.80;;;;;;6254542;22;20020;-91
2023/09/07 14:10:55;;;;;;;1063.40;974.95;;;31.50;91.90;;;;;;6073715;23;20014;-93
2023/09/07 14:13:24;;;;;;;765.20;702.28;;;31.40;91.60;;;;;;6098319;23;20073;-93
2023/09/07 14:15:49;;;;;;;1046.60;966.13;;;31.40;91.50;;;;;;6049022;23;20018;-94
2023/09/07 14:18:21;;;;;;;764.33;702.60;;;31.50;92.30;;;;;;6048447;23;20022;-92
2023/09/07 14:24:46;;;;;;;1029.43;953.60;;;31.50;92.20;;;;;;6096338;23;20358;-90
2023/09/07 14:27:12;;;;;;;1043.75;964.75;;;31.50;91.90;;;;;;6071682;23;20473;-88
2023/09/07 14:29:37;;;;;;;1093.68;997.83;;;31.30;92.10;;;;;;6047782;23;20058;-91
2023/09/07 14:32:04;;;;;;;1098.25;994.92;;;31.30;92.10;;;;;;6070745;23;20083;-89
2023/09/07 14:34:30;;;;;;;730.05;677.35;;;31.30;92.30;;;;;;6096076;23;20065;-90
2023/09/07 14:36:58;;;;;;;1042.82;964.65;;;31.20;91.50;;;;;;6095564;23;20019;-87
2023/09/07 14:39:24;;;;;;;1036.47;960.95;;;31.30;92.70;;;;;;6071604;23;20109;-89
2023/09/07 14:41:53;;;;;;;1042.10;965.53;;;31.30;92.00;;;;;;6071751;23;20042;-88
2023/09/07 14:44:22;;;;;;;1041.55;962.17;;;31.20;92.10;;;;;;6072035;23;20048;-90
2023/09/07 14:47:09;;;;;;;;;;;;;;;;;;;;;
2023/09/07 14:50:13;;;;;;;786.75;716.10;;;31.20;92.40;;;;;;6131593;23;20020;-87
2023/09/07 15:00:51;;;;;;;1147.75;999.90;;;30.90;93.20;;;;;;6266882;22;20080;-89
2023/09/07 15:56:51;;;;;;;262.88;244.98;;;28.50;95.60;;;;;;6308461;22;20148;-93
2023/09/07 15:59:25;;;;;;;282.75;257.52;;;28.40;95.20;;;;;;6309697;22;20016;-89
2023/09/07 16:01:54;;;;;;;283.05;257.90;;;28.30;95.80;;;;;;6307911;22;20015;-89
2023/09/07 16:04:39;;;;;;;329.73;308.48;;;28.30;95.50;;;;;;6308657;22;20010;-91
2023/09/07 16:07:08;;;;;;;406.27;371.45;;;28.20;96.20;;;;;;6309498;22;20019;-92
2023/09/07 16:09:37;;;;;;;222.90;202.57;;;28.10;95.90;;;;;;6313443;22;20015;-87
2023/09/07 16:12:09;;;;;;;156.95;146.32;;;28.00;96.00;;;;;;6311690;22;20019;-90